Time;durP1;ratioP1;P1;durP2;ratioP2;P2;SDS_P1;SDS_P2;PMS_P1;PMS_P2;Temp;Humidity;BMP_temperature;BMP_pressure;BME280_temperature;BME280_humidity;BME280_pressure;Samples;Min_cycle;Max_cycle;Signal;HPM_P1;HPM_P2
2024/01/05 00:00:59;;;;;;;52.88;42.65;;;10.60;99.90;;;;;;5043704;28;20052;-62
2024/01/05 00:03:24;;;;;;;41.53;37.13;;;10.70;99.90;;;;;;5036301;28;20132;-62
2024/01/05 00:05:50;;;;;;;42.47;37.88;;;10.50;99.90;;;;;;5044482;28;20473;-62
2024/01/05 00:08:16;;;;;;;50.33;39.53;;;10.20;99.90;;;;;;5037599;28;20124;-63
2024/01/05 00:10:41;;;;;;;44.38;38.55;;;10.80;99.90;;;;;;5046111;28;20045;-62
2024/01/05 00:13:07;;;;;;;47.88;38.92;;;11.10;99.90;;;;;;5026994;28;20411;-62
2024/01/05 00:15:32;;;;;;;49.13;43.78;;;10.80;99.90;;;;;;5026136;28;20475;-62
2024/01/05 00:17:58;;;;;;;47.88;42.47;;;10.70;99.90;;;;;;5036589;28;20052;-62
2024/01/05 00:20:24;;;;;;;43.55;39.05;;;10.60;99.90;;;;;;5043768;28;20135;-61
2024/01/05 00:22:49;;;;;;;53.92;44.08;;;10.30;99.90;;;;;;5038606;28;20041;-61
2024/01/05 00:25:16;;;;;;;46.75;38.88;;;10.60;99.90;;;;;;5045742;28;20045;-61
2024/01/05 00:27:42;;;;;;;40.65;36.25;;;10.40;99.90;;;;;;5045448;28;20045;-61
2024/01/05 00:30:08;;;;;;;38.38;34.47;;;10.30;99.90;;;;;;5045197;28;20391;-62
2024/01/05 00:32:33;;;;;;;47.75;37.33;;;10.40;99.90;;;;;;5028717;28;20398;-62
2024/01/05 00:34:59;;;;;;;48.33;41.05;;;10.10;99.90;;;;;;5041448;28;20033;-62
2024/01/05 00:37:24;;;;;;;47.90;41.42;;;10.00;1.00;;;;;;5036783;28;20099;-62
2024/01/05 00:39:50;;;;;;;40.47;35.95;;;10.30;99.90;;;;;;5023619;28;20102;-63
2024/01/05 00:42:16;;;;;;;52.05;37.95;;;10.00;1.00;;;;;;5036622;28;20076;-61
2024/01/05 00:44:41;;;;;;;46.67;37.63;;;10.60;1.00;;;;;;5044007;28;20560;-61
2024/01/05 00:47:07;;;;;;;43.60;39.03;;;10.90;1.00;;;;;;5043581;28;20402;-62
2024/01/05 00:49:33;;;;;;;45.90;41.25;;;10.80;1.00;;;;;;5033550;28;20045;-61
2024/01/05 00:51:58;;;;;;;51.47;43.97;;;10.20;1.00;;;;;;5040409;28;20037;-61
2024/01/05 00:54:25;;;;;;;50.75;43.63;;;10.40;1.00;;;;;;5044028;28;20044;-61
2024/01/05 00:56:51;;;;;;;49.67;44.20;;;10.20;1.00;;;;;;5043698;28;20080;-62
2024/01/05 00:59:19;;;;;;;47.70;40.90;;;10.20;1.00;;;;;;5027469;28;20077;-62
2024/01/05 01:01:45;;;;;;;51.67;44.80;;;10.60;1.00;;;;;;5042870;28;20056;-63
2024/01/05 01:04:11;;;;;;;47.72;40.08;;;10.40;1.00;;;;;;5025882;28;20151;-64
2024/01/05 01:06:36;;;;;;;47.20;39.67;;;10.10;1.00;;;;;;5045014;28;20606;-62
2024/01/05 01:09:02;;;;;;;47.80;40.63;;;10.30;1.00;;;;;;5033666;28;20037;-62
2024/01/05 01:11:28;;;;;;;45.00;40.33;;;10.40;1.00;;;;;;5043694;28;20250;-62
2024/01/05 01:13:53;;;;;;;48.60;40.88;;;10.10;1.00;;;;;;5032793;28;20144;-61
2024/01/05 01:16:19;;;;;;;48.20;39.97;;;10.40;1.00;;;;;;5047037;28;20094;-62
2024/01/05 01:18:45;;;;;;;42.88;36.55;;;10.60;26.60;;;;;;5047043;28;20368;-62
2024/01/05 01:21:10;;;;;;;46.22;41.22;;;10.40;31.50;;;;;;5028021;28;20072;-62
2024/01/05 01:23:36;;;;;;;49.05;43.75;;;10.30;39.50;;;;;;5029238;28;20045;-62
2024/01/05 01:26:01;;;;;;;54.33;43.85;;;10.30;44.70;;;;;;5027938;28;20045;-61
2024/01/05 01:28:28;;;;;;;51.85;43.85;;;11.00;53.50;;;;;;5028567;28;20041;-62
2024/01/05 01:30:53;;;;;;;47.80;41.67;;;10.70;77.80;;;;;;5043132;28;20037;-62
2024/01/05 01:33:19;;;;;;;56.40;44.40;;;10.70;92.60;;;;;;5046870;28;20039;-62
2024/01/05 01:35:44;;;;;;;58.42;43.80;;;10.70;94.70;;;;;;5048128;28;20037;-61
2024/01/05 01:38:10;;;;;;;50.65;42.13;;;10.70;99.90;;;;;;5048985;28;20037;-61
2024/01/05 01:40:36;;;;;;;45.53;40.75;;;10.20;99.90;;;;;;5032180;28;20045;-62
2024/01/05 01:43:03;;;;;;;43.60;37.70;;;10.60;99.90;;;;;;5028910;28;20049;-61
2024/01/05 01:45:30;;;;;;;40.60;36.50;;;10.70;99.90;;;;;;5040105;28;20637;-62
2024/01/05 01:47:55;;;;;;;48.67;42.00;;;10.60;99.90;;;;;;5047928;28;20351;-63
2024/01/05 01:50:24;;;;;;;50.25;42.40;;;10.60;99.90;;;;;;5034108;28;20127;-62
2024/01/05 01:52:50;;;;;;;44.28;39.33;;;10.40;99.90;;;;;;5030769;28;20029;-62
2024/01/05 01:55:17;;;;;;;44.05;39.35;;;11.30;99.90;;;;;;5035976;28;20049;-61
2024/01/05 01:57:43;;;;;;;46.08;41.08;;;10.40;99.90;;;;;;5028359;28;20045;-62
2024/01/05 02:00:10;;;;;;;48.80;41.92;;;10.70;99.90;;;;;;5029186;28;20262;-62
2024/01/05 02:02:37;;;;;;;45.28;40.38;;;10.70;99.90;;;;;;5027882;28;20408;-61
2024/01/05 02:05:02;;;;;;;45.42;40.58;;;10.30;99.90;;;;;;5036441;28;20487;-62
2024/01/05 02:07:28;;;;;;;43.10;38.50;;;10.70;99.90;;;;;;5045582;28;20133;-61
2024/01/05 02:09:54;;;;;;;48.38;41.97;;;10.70;99.90;;;;;;5043596;28;20045;-62
2024/01/05 02:12:20;;;;;;;42.72;37.80;;;10.30;99.90;;;;;;5046867;28;20120;-62
2024/01/05 02:14:45;;;;;;;51.53;39.67;;;10.50;99.90;;;;;;5041866;28;20041;-62
2024/01/05 02:17:31;;;;;;;43.97;39.30;;;10.40;99.90;;;;;;5028203;28;20128;-62
2024/01/05 02:19:57;;;;;;;47.40;42.20;;;10.70;99.90;;;;;;5032289;28;20040;-61
2024/01/05 02:22:26;;;;;;;43.88;38.78;;;10.30;99.90;;;;;;5047544;28;20045;-62
2024/01/05 02:24:52;;;;;;;56.75;40.47;;;10.20;99.90;;;;;;5046859;28;20041;-61
2024/01/05 02:27:17;;;;;;;54.42;43.13;;;10.70;99.90;;;;;;5035983;28;20037;-62
2024/01/05 02:29:43;;;;;;;45.63;40.67;;;10.60;99.90;;;;;;5043359;28;20536;-61
2024/01/05 02:32:08;;;;;;;53.53;44.20;;;10.30;99.90;;;;;;5030094;28;20044;-63
2024/01/05 02:34:34;;;;;;;44.42;39.80;;;10.40;99.90;;;;;;5044177;28;20064;-62
2024/01/05 02:36:59;;;;;;;47.35;41.75;;;10.20;99.90;;;;;;5009870;28;20038;-62
2024/01/05 02:39:25;;;;;;;49.20;41.85;;;10.20;99.90;;;;;;5027265;28;20099;-61
2024/01/05 02:41:50;;;;;;;51.20;44.15;;;10.70;99.90;;;;;;5046368;28;20044;-61
2024/01/05 02:44:16;;;;;;;48.88;42.85;;;10.30;99.90;;;;;;5038480;28;20448;-61
2024/01/05 02:46:41;;;;;;;49.35;43.72;;;10.70;99.90;;;;;;5027693;28;20056;-62
2024/01/05 02:49:07;;;;;;;49.55;43.67;;;10.60;99.90;;;;;;5027626;28;20045;-62
2024/01/05 02:51:33;;;;;;;46.60;41.20;;;10.60;99.90;;;;;;5043416;28;20037;-61
2024/01/05 02:53:58;;;;;;;44.70;39.83;;;10.60;99.90;;;;;;5046591;28;20099;-64
2024/01/05 02:56:24;;;;;;;55.10;44.25;;;10.20;99.90;;;;;;5044101;28;20037;-61
2024/01/05 02:58:51;;;;;;;50.20;44.60;;;10.30;99.90;;;;;;5035853;28;20562;-61
2024/01/05 03:01:16;;;;;;;46.35;41.30;;;10.40;99.90;;;;;;5030533;28;20053;-62
2024/01/05 03:03:49;;;;;;;40.45;36.08;;;10.60;99.90;;;;;;5025564;28;20095;-62
2024/01/05 03:06:16;;;;;;;46.53;40.17;;;10.40;99.90;;;;;;5044449;28;20099;-62
2024/01/05 03:08:42;;;;;;;47.22;42.00;;;10.30;99.90;;;;;;5032283;28;20495;-62
2024/01/05 03:11:07;;;;;;;48.58;41.42;;;10.20;99.90;;;;;;5032132;28;20064;-62
2024/01/05 03:13:33;;;;;;;45.95;41.00;;;10.30;99.90;;;;;;5034827;28;20049;-62
2024/01/05 03:15:59;;;;;;;53.97;44.63;;;10.40;99.90;;;;;;5032340;28;20041;-63
2024/01/05 03:18:24;;;;;;;50.15;44.67;;;11.40;99.90;;;;;;5026950;28;20044;-62
2024/01/05 03:20:50;;;;;;;50.50;44.58;;;10.30;99.90;;;;;;5037063;28;20057;-62
2024/01/05 03:23:15;;;;;;;45.95;40.95;;;10.30;99.90;;;;;;5046280;28;20049;-62
2024/01/05 03:25:41;;;;;;;47.38;42.53;;;10.60;99.90;;;;;;5033770;28;20045;-63
2024/01/05 03:28:07;;;;;;;47.55;42.13;;;10.60;99.90;;;;;;5027510;28;20045;-62
2024/01/05 03:30:33;;;;;;;48.75;43.42;;;10.70;99.90;;;;;;5045526;28;20247;-63
2024/01/05 03:32:58;;;;;;;44.67;40.00;;;10.60;99.90;;;;;;5043936;28;20041;-62
2024/01/05 03:35:24;;;;;;;50.20;44.30;;;10.30;1.00;;;;;;5028350;28;20403;-62
2024/01/05 03:37:49;;;;;;;47.83;42.65;;;10.70;99.90;;;;;;5034435;28;20522;-62
2024/01/05 03:40:15;;;;;;;49.22;43.42;;;10.40;1.00;;;;;;5044279;28;20049;-62
2024/01/05 03:42:41;;;;;;;52.38;43.15;;;10.60;1.00;;;;;;5041154;28;20064;-62
2024/01/05 03:45:07;;;;;;;50.50;45.00;;;10.70;1.00;;;;;;5027284;28;20048;-62
2024/01/05 03:47:33;;;;;;;42.95;38.38;;;10.10;1.00;;;;;;5034177;28;20053;-62
2024/01/05 03:49:58;;;;;;;48.58;43.33;;;10.60;1.00;;;;;;5030411;28;20522;-62
2024/01/05 03:52:24;;;;;;;50.08;43.95;;;10.20;1.00;;;;;;5032073;28;20039;-62
2024/01/05 03:54:50;;;;;;;44.72;40.00;;;10.20;1.00;;;;;;5029570;28;20037;-62
2024/01/05 03:57:15;;;;;;;52.50;45.17;;;10.20;1.00;;;;;;5044297;28;20094;-62
2024/01/05 03:59:44;;;;;;;51.47;44.97;;;10.20;1.00;;;;;;5031196;28;20053;-61
2024/01/05 04:02:10;;;;;;;52.90;47.10;;;10.50;1.00;;;;;;5026144;28;20057;-61
2024/01/05 04:04:35;;;;;;;51.60;45.80;;;10.60;1.00;;;;;;5027307;28;20053;-63
2024/01/05 04:07:01;;;;;;;52.13;44.90;;;10.10;1.00;;;;;;5041209;28;20334;-62
2024/01/05 04:09:27;;;;;;;50.22;44.88;;;10.60;1.00;;;;;;5044770;28;20052;-62
2024/01/05 04:11:53;;;;;;;50.17;44.65;;;10.60;1.00;;;;;;5043140;28;20399;-62
2024/01/05 04:14:18;;;;;;;55.25;44.80;;;10.40;1.00;;;;;;5045382;28;20116;-65
2024/01/05 04:16:44;;;;;;;52.70;45.53;;;10.60;1.00;;;;;;5026019;28;20049;-63
2024/01/05 04:19:10;;;;;;;51.13;41.97;;;10.60;1.00;;;;;;5033977;28;20037;-61
2024/01/05 04:21:35;;;;;;;49.40;44.05;;;10.60;1.00;;;;;;5045241;28;20399;-63
2024/01/05 04:24:01;;;;;;;51.13;45.67;;;10.10;1.00;;;;;;5044525;28;20045;-63
2024/01/05 04:26:27;;;;;;;52.80;46.92;;;10.20;1.00;;;;;;5036788;28;20045;-61
2024/01/05 04:28:53;;;;;;;52.60;45.45;;;10.20;1.00;;;;;;5046450;28;20471;-63
2024/01/05 04:31:18;;;;;;;49.45;43.25;;;10.30;1.00;;;;;;5034058;28;20077;-63
2024/01/05 04:33:44;;;;;;;54.17;47.60;;;10.20;1.00;;;;;;5026193;28;20041;-62
2024/01/05 04:36:10;;;;;;;47.97;43.17;;;10.70;1.00;;;;;;5034031;28;20041;-62
2024/01/05 04:38:36;;;;;;;50.42;45.20;;;10.30;1.00;;;;;;5035876;28;20052;-61
2024/01/05 04:41:02;;;;;;;48.08;42.15;;;10.30;1.00;;;;;;5026950;28;20041;-62
2024/01/05 04:43:28;;;;;;;47.35;42.38;;;10.40;1.00;;;;;;5047866;28;20124;-64
2024/01/05 04:45:53;;;;;;;59.85;47.67;;;10.30;1.00;;;;;;5037753;28;20098;-62
2024/01/05 04:48:19;;;;;;;49.30;44.10;;;10.30;1.00;;;;;;5047286;28;20041;-62
2024/01/05 04:50:45;;;;;;;53.90;48.17;;;10.30;1.00;;;;;;5047465;28;20044;-63
2024/01/05 04:53:10;;;;;;;54.50;48.47;;;10.70;1.00;;;;;;5049398;28;20609;-63
2024/01/05 04:55:36;;;;;;;53.05;47.35;;;10.60;1.00;;;;;;5039636;28;20057;-62
2024/01/05 04:58:01;;;;;;;55.22;49.45;;;10.60;1.00;;;;;;5035682;28;20033;-63
2024/01/05 05:00:27;;;;;;;56.45;50.17;;;10.40;1.00;;;;;;5029723;28;20090;-61
2024/01/05 05:02:52;;;;;;;55.50;48.90;;;10.50;1.00;;;;;;5031295;28;20302;-62
2024/01/05 05:05:18;;;;;;;56.75;47.70;;;10.20;1.00;;;;;;5038553;28;20056;-61
2024/01/05 05:07:43;;;;;;;48.55;43.45;;;10.50;1.00;;;;;;5039820;28;20046;-62
2024/01/05 05:10:09;;;;;;;51.35;45.75;;;10.20;1.00;;;;;;5029133;28;20076;-62
2024/01/05 05:12:35;;;;;;;54.75;47.00;;;10.20;1.00;;;;;;5043390;28;20033;-61
2024/01/05 05:15:00;;;;;;;52.58;43.40;;;10.30;1.00;;;;;;5044039;28;20029;-63
2024/01/05 05:17:26;;;;;;;53.35;47.33;;;10.20;1.00;;;;;;5045345;28;20147;-62
2024/01/05 05:19:54;;;;;;;47.95;42.72;;;10.70;1.00;;;;;;5039811;28;20041;-63
2024/01/05 05:22:20;;;;;;;50.90;44.83;;;10.70;1.00;;;;;;5048423;28;20500;-62
2024/01/05 05:24:46;;;;;;;54.42;48.80;;;10.60;1.00;;;;;;5042551;28;20471;-63
2024/01/05 05:27:12;;;;;;;49.42;44.20;;;10.60;1.00;;;;;;5029174;28;20052;-62
2024/01/05 05:29:37;;;;;;;55.55;48.95;;;10.70;1.00;;;;;;5028636;28;20499;-62
2024/01/05 05:32:03;;;;;;;65.13;47.08;;;10.50;1.00;;;;;;5028826;28;20076;-62
2024/01/05 05:34:29;;;;;;;69.90;62.80;;;10.30;12.30;;;;;;5044099;28;20088;-61
2024/01/05 05:36:54;;;;;;;56.53;49.17;;;10.40;17.00;;;;;;5048572;28;20041;-62
2024/01/05 05:39:20;;;;;;;55.05;46.05;;;10.70;22.70;;;;;;5048545;28;20045;-62
2024/01/05 05:41:45;;;;;;;52.22;46.53;;;10.40;43.20;;;;;;5048442;28;20044;-63
2024/01/05 05:44:11;;;;;;;56.10;48.38;;;10.40;47.00;;;;;;5040046;28;20045;-61
2024/01/05 05:46:36;;;;;;;54.03;47.90;;;10.40;58.80;;;;;;5043262;28;20049;-62
2024/01/05 05:49:02;;;;;;;53.20;47.65;;;10.60;49.30;;;;;;5040069;28;20048;-62
2024/01/05 05:51:28;;;;;;;60.22;46.92;;;10.40;72.80;;;;;;5028711;28;20072;-61
2024/01/05 05:53:54;;;;;;;49.28;44.10;;;10.80;66.40;;;;;;5038407;28;20041;-63
2024/01/05 05:56:19;;;;;;;51.83;43.72;;;10.70;82.70;;;;;;5045011;28;20063;-63
2024/01/05 05:58:45;;;;;;;52.72;44.50;;;10.50;99.90;;;;;;5047486;28;20040;-62
2024/01/05 06:01:13;;;;;;;55.50;49.28;;;10.50;99.90;;;;;;5045927;28;20057;-62
2024/01/05 06:03:39;;;;;;;55.83;49.45;;;10.90;99.90;;;;;;5040886;28;20059;-62
2024/01/05 06:06:14;;;;;;;53.35;47.72;;;10.40;99.90;;;;;;5042213;28;20177;-62
2024/01/05 06:08:40;;;;;;;59.08;49.10;;;10.90;99.90;;;;;;5045080;28;20057;-63
2024/01/05 06:11:05;;;;;;;54.00;47.72;;;10.90;99.90;;;;;;5048124;28;20053;-63
2024/01/05 06:13:31;;;;;;;50.30;45.05;;;10.50;99.90;;;;;;5041673;28;20033;-62
2024/01/05 06:15:56;;;;;;;54.63;48.25;;;10.90;99.90;;;;;;5028809;28;20041;-61
2024/01/05 06:18:22;;;;;;;50.17;44.95;;;10.70;99.90;;;;;;5027639;28;20077;-62
2024/01/05 06:20:48;;;;;;;52.40;46.92;;;10.60;99.90;;;;;;5027925;28;20053;-62
2024/01/05 06:23:13;;;;;;;49.15;44.08;;;10.60;99.90;;;;;;5040034;28;20352;-62
2024/01/05 06:25:39;;;;;;;50.35;45.03;;;11.00;99.90;;;;;;5029409;28;20041;-62
2024/01/05 06:28:04;;;;;;;51.15;45.47;;;10.50;99.90;;;;;;5042589;28;20049;-62
2024/01/05 06:30:30;;;;;;;49.30;43.92;;;10.50;99.90;;;;;;5031826;28;20079;-63
2024/01/05 06:32:55;;;;;;;49.00;43.83;;;10.90;99.90;;;;;;5039963;28;20036;-63
2024/01/05 06:35:21;;;;;;;49.95;44.55;;;10.90;99.90;;;;;;5047248;28;20041;-62
2024/01/05 06:37:46;;;;;;;48.67;43.28;;;10.50;99.90;;;;;;5047560;28;20047;-62
2024/01/05 06:40:12;;;;;;;50.70;43.25;;;10.50;99.90;;;;;;5042792;28;20594;-63
2024/01/05 06:42:38;;;;;;;47.17;42.22;;;10.60;99.90;;;;;;5046205;28;20041;-64
2024/01/05 06:45:04;;;;;;;49.17;42.75;;;10.80;99.90;;;;;;5028382;28;20045;-63
2024/01/05 06:47:29;;;;;;;45.38;40.63;;;10.70;99.90;;;;;;5029111;28;20877;-63
2024/01/05 06:49:55;;;;;;;50.80;43.13;;;10.50;99.90;;;;;;5032175;28;20111;-62
2024/01/05 06:52:20;;;;;;;45.80;41.13;;;10.90;99.90;;;;;;5031782;28;20049;-63
2024/01/05 06:54:46;;;;;;;46.67;41.28;;;10.50;99.90;;;;;;5034399;28;20041;-63
2024/01/05 06:57:11;;;;;;;46.95;41.97;;;11.70;99.90;;;;;;5040988;28;20045;-62
2024/01/05 06:59:39;;;;;;;44.88;40.22;;;10.90;1.00;;;;;;5041613;28;20040;-63
2024/01/05 07:02:05;;;;;;;48.45;43.15;;;10.60;1.00;;;;;;5038325;28;20065;-62
2024/01/05 07:04:30;;;;;;;46.22;41.53;;;10.50;1.00;;;;;;5038361;28;20049;-62
2024/01/05 07:06:56;;;;;;;45.40;40.78;;;11.10;1.00;;;;;;5037049;28;20427;-61
2024/01/05 07:09:22;;;;;;;41.95;37.75;;;11.20;1.00;;;;;;5042723;28;20033;-62
2024/01/05 07:11:49;;;;;;;42.47;38.03;;;10.60;1.00;;;;;;5040328;28;20040;-62
2024/01/05 07:14:17;;;;;;;44.65;39.88;;;10.60;1.00;;;;;;5045981;28;20086;-62
2024/01/05 07:16:43;;;;;;;45.15;40.30;;;11.10;28.00;;;;;;5041442;28;20048;-62
2024/01/05 07:19:08;;;;;;;46.80;41.72;;;10.70;93.00;;;;;;5036049;28;20498;-63
2024/01/05 07:21:40;;;;;;;46.40;41.65;;;10.80;99.90;;;;;;5033821;28;20120;-63
2024/01/05 07:24:06;;;;;;;46.13;41.25;;;10.80;99.90;;;;;;5040307;28;20043;-62
2024/01/05 07:26:32;;;;;;;44.90;40.13;;;10.90;99.90;;;;;;5033051;28;20084;-64
2024/01/05 07:28:58;;;;;;;42.33;37.83;;;11.00;99.90;;;;;;5038901;28;20459;-63
2024/01/05 07:31:24;;;;;;;44.47;39.72;;;10.90;99.90;;;;;;5040111;28;20094;-62
2024/01/05 07:33:49;;;;;;;42.63;38.30;;;11.00;99.90;;;;;;5035068;28;20045;-63
2024/01/05 07:36:15;;;;;;;49.83;42.67;;;10.90;99.90;;;;;;5041976;28;20033;-63
2024/01/05 07:38:40;;;;;;;48.72;43.38;;;10.90;99.90;;;;;;5043203;28;20041;-63
2024/01/05 07:41:06;;;;;;;48.20;42.83;;;10.80;99.90;;;;;;5042072;28;21556;-62
2024/01/05 07:43:32;;;;;;;43.83;39.53;;;10.80;99.90;;;;;;5037400;28;20830;-62
2024/01/05 07:46:01;;;;;;;45.85;41.08;;;10.90;99.90;;;;;;5028658;28;20033;-63
2024/01/05 07:48:26;;;;;;;49.67;43.17;;;10.70;99.90;;;;;;5032511;28;21625;-62
2024/01/05 07:50:52;;;;;;;53.33;46.00;;;10.80;1.00;;;;;;5040114;28;20033;-63
2024/01/05 07:53:17;;;;;;;53.90;47.85;;;10.70;1.00;;;;;;5037257;28;20037;-64
2024/01/05 07:55:43;;;;;;;45.42;40.58;;;10.90;1.00;;;;;;5035607;28;20110;-63
2024/01/05 07:58:09;;;;;;;54.88;46.45;;;10.70;1.00;;;;;;5039521;28;20204;-63
2024/01/05 08:00:35;;;;;;;51.47;42.90;;;11.20;1.00;;;;;;5040612;28;20582;-63
2024/01/05 08:03:03;;;;;;;46.92;41.15;;;11.30;1.00;;;;;;5035195;28;20468;-65
2024/01/05 08:05:29;;;;;;;50.15;43.08;;;11.30;1.00;;;;;;5037692;28;20132;-63
2024/01/05 08:07:55;;;;;;;49.33;42.30;;;11.10;10.60;;;;;;5039947;28;20578;-65
2024/01/05 08:10:20;;;;;;;54.33;46.65;;;11.40;27.50;;;;;;5037795;28;20044;-63
2024/01/05 08:12:46;;;;;;;48.40;42.60;;;11.40;90.00;;;;;;5031980;28;20041;-64
2024/01/05 08:15:11;;;;;;;53.00;46.15;;;11.40;99.90;;;;;;5037721;28;20049;-63
2024/01/05 08:17:38;;;;;;;56.30;49.15;;;10.90;99.90;;;;;;5034003;28;20073;-63
2024/01/05 08:20:05;;;;;;;53.67;48.25;;;11.30;99.90;;;;;;5035262;28;20056;-64
2024/01/05 08:22:31;;;;;;;53.65;48.03;;;10.90;99.90;;;;;;5039964;28;20087;-63
2024/01/05 08:24:57;;;;;;;55.53;49.03;;;10.90;99.90;;;;;;5037304;28;20044;-65
2024/01/05 08:27:22;;;;;;;55.47;49.72;;;11.10;99.90;;;;;;5037169;28;20506;-62
2024/01/05 08:29:48;;;;;;;59.22;46.78;;;11.00;99.90;;;;;;5036042;28;20052;-65
2024/01/05 08:32:13;;;;;;;56.80;46.83;;;11.30;99.90;;;;;;5039073;28;20499;-63
2024/01/05 08:34:39;;;;;;;53.13;44.20;;;11.60;99.90;;;;;;5040416;28;20037;-63
2024/01/05 08:37:05;;;;;;;58.15;47.05;;;10.90;99.90;;;;;;5038829;28;20052;-64
2024/01/05 08:39:30;;;;;;;57.85;45.55;;;11.30;99.90;;;;;;5039521;28;20035;-62
2024/01/05 08:41:59;;;;;;;59.95;47.25;;;11.30;99.90;;;;;;5041486;28;20534;-63
2024/01/05 08:44:32;;;;;;;61.78;47.65;;;11.10;99.90;;;;;;5038595;28;20045;-62
2024/01/05 08:46:58;;;;;;;54.83;47.58;;;10.60;99.90;;;;;;5039162;28;20044;-63
2024/01/05 08:49:24;;;;;;;630.65;122.30;;;10.80;99.90;;;;;;5037658;28;20037;-67
2024/01/05 08:51:49;;;;;;;52.55;46.13;;;11.10;1.00;;;;;;5041915;28;20037;-65
2024/01/05 08:54:15;;;;;;;55.67;49.13;;;11.60;1.00;;;;;;5036792;28;20483;-64
2024/01/05 08:56:40;;;;;;;54.08;47.95;;;11.10;1.00;;;;;;5035013;28;20040;-63
2024/01/05 08:59:09;;;;;;;57.70;45.10;;;11.60;1.00;;;;;;5042506;28;20128;-62
2024/01/05 09:01:34;;;;;;;48.33;43.08;;;11.80;16.80;;;;;;5036509;28;20246;-63
2024/01/05 09:04:00;;;;;;;47.78;42.83;;;11.80;69.10;;;;;;5037453;28;20041;-62
2024/01/05 09:06:32;;;;;;;55.67;49.17;;;11.40;99.90;;;;;;5035889;28;20044;-66
2024/01/05 09:08:59;;;;;;;75.97;68.63;;;11.30;99.90;;;;;;5036502;28;20121;-62
2024/01/05 09:11:24;;;;;;;56.40;49.30;;;11.40;99.90;;;;;;5037602;28;20037;-62
2024/01/05 09:13:50;;;;;;;50.85;45.40;;;11.80;99.90;;;;;;5038487;28;20044;-62
2024/01/05 09:16:15;;;;;;;57.67;48.72;;;11.20;99.90;;;;;;5038572;28;20041;-64
2024/01/05 09:18:42;;;;;;;56.75;47.75;;;11.80;99.90;;;;;;5038744;28;20099;-63
2024/01/05 09:21:08;;;;;;;47.42;42.38;;;11.30;99.90;;;;;;5041747;28;20102;-63
2024/01/05 09:23:34;;;;;;;48.00;42.83;;;12.30;99.90;;;;;;5040053;28;20064;-63
2024/01/05 09:26:00;;;;;;;48.80;43.50;;;11.50;99.90;;;;;;5040761;28;20049;-64
2024/01/05 09:28:25;;;;;;;45.35;40.53;;;11.20;99.90;;;;;;5043593;28;20395;-64
2024/01/05 09:30:51;;;;;;;50.13;43.03;;;11.50;99.90;;;;;;5046766;28;20033;-63
2024/01/05 09:33:16;;;;;;;45.95;40.70;;;11.10;99.90;;;;;;5039914;28;20048;-65
2024/01/05 09:35:42;;;;;;;56.60;43.63;;;11.20;99.90;;;;;;5041878;28;20083;-63
2024/01/05 09:38:08;;;;;;;45.30;39.33;;;11.20;99.90;;;;;;5043865;28;20053;-67
2024/01/05 09:40:34;;;;;;;48.92;43.20;;;11.70;99.90;;;;;;5040831;28;20052;-64
2024/01/05 09:43:02;;;;;;;45.63;40.50;;;11.20;99.90;;;;;;5046188;28;20039;-64
2024/01/05 09:45:29;;;;;;;45.80;40.50;;;11.00;82.70;;;;;;5043440;28;20049;-64
2024/01/05 09:48:00;;;;;;;51.42;41.63;;;10.80;32.60;;;;;;5038590;28;20200;-64
2024/01/05 09:50:25;;;;;;;47.65;39.25;;;11.20;17.10;;;;;;5043410;28;20453;-64
2024/01/05 09:52:51;;;;;;;45.92;41.13;;;11.30;99.90;;;;;;5045464;28;20041;-62
2024/01/05 09:55:16;;;;;;;70.13;63.45;;;11.90;99.90;;;;;;5042014;28;20037;-64
2024/01/05 09:57:43;;;;;;;53.85;45.10;;;11.40;99.90;;;;;;5040924;28;20072;-62
2024/01/05 10:00:13;;;;;;;48.65;42.95;;;11.90;99.90;;;;;;5037200;28;20501;-64
2024/01/05 10:02:50;;;;;;;44.83;37.88;;;11.80;99.90;;;;;;5041078;28;20059;-66
2024/01/05 10:05:15;;;;;;;48.83;43.63;;;11.50;1.00;;;;;;5040141;28;20044;-64
2024/01/05 10:07:44;;;;;;;49.90;42.08;;;12.00;1.00;;;;;;5039689;28;20041;-64
2024/01/05 10:10:13;;;;;;;43.85;39.22;;;11.60;1.00;;;;;;5037511;28;20055;-63
2024/01/05 10:12:42;;;;;;;42.15;37.47;;;12.10;1.00;;;;;;5037367;28;20041;-63
2024/01/05 10:15:08;;;;;;;51.55;39.00;;;11.70;99.40;;;;;;5036393;28;20044;-66
2024/01/05 10:17:34;;;;;;;43.72;38.20;;;12.10;98.20;;;;;;5043274;28;20071;-63
2024/01/05 10:20:21;;;;;;;46.35;39.17;;;12.10;99.90;;;;;;5042256;28;20491;-64
2024/01/05 10:22:46;;;;;;;50.95;41.85;;;12.20;99.90;;;;;;5039593;28;20041;-63
2024/01/05 10:25:23;;;;;;;44.28;39.55;;;12.30;99.90;;;;;;5039627;28;20103;-63
2024/01/05 10:27:49;;;;;;;51.58;39.78;;;12.00;99.90;;;;;;5042225;28;20391;-62
2024/01/05 10:30:28;;;;;;;50.05;40.92;;;11.80;1.00;;;;;;5039012;28;20106;-62
2024/01/05 10:33:07;;;;;;;49.30;43.25;;;12.40;1.00;;;;;;5040233;28;20488;-62
2024/01/05 10:35:34;;;;;;;49.83;40.80;;;12.50;1.00;;;;;;5041570;28;20049;-63
2024/01/05 10:38:11;;;;;;;47.75;40.83;;;12.40;1.00;;;;;;5039506;28;20122;-63
2024/01/05 10:40:37;;;;;;;48.97;41.95;;;12.00;48.40;;;;;;5041359;28;20038;-63
2024/01/05 10:43:11;;;;;;;45.78;39.80;;;12.10;92.60;;;;;;5040621;28;20067;-65
2024/01/05 10:45:38;;;;;;;45.08;40.58;;;12.00;99.90;;;;;;5039419;28;20076;-63
2024/01/05 10:48:13;;;;;;;47.10;41.20;;;12.10;99.90;;;;;;5037435;28;20140;-63
2024/01/05 10:50:41;;;;;;;64.85;58.58;;;12.00;99.90;;;;;;5037832;28;20044;-63
2024/01/05 10:53:10;;;;;;;50.03;41.65;;;11.90;99.90;;;;;;5035527;28;20127;-64
2024/01/05 10:55:40;;;;;;;45.10;40.40;;;12.00;99.90;;;;;;5037243;28;20073;-63
2024/01/05 10:58:09;;;;;;;48.25;43.08;;;12.10;99.90;;;;;;5023497;28;20052;-64
2024/01/05 11:00:38;;;;;;;46.63;39.53;;;12.20;99.90;;;;;;5040652;28;20049;-63
2024/01/05 11:03:11;;;;;;;46.25;40.67;;;12.10;99.90;;;;;;5038571;28;20088;-64
2024/01/05 11:05:40;;;;;;;51.42;42.35;;;12.10;1.00;;;;;;5037040;28;20044;-64
2024/01/05 11:08:17;;;;;;;49.25;42.15;;;12.20;1.00;;;;;;5038433;28;20049;-64
2024/01/05 11:11:04;;;;;;;46.15;40.95;;;12.20;1.00;;;;;;5040847;28;20045;-65
2024/01/05 11:13:46;;;;;;;54.10;42.35;;;12.40;1.00;;;;;;5041464;28;20047;-65
2024/01/05 11:16:20;;;;;;;48.35;41.90;;;12.40;25.70;;;;;;5040989;28;20045;-63
2024/01/05 11:18:52;;;;;;;59.80;54.30;;;12.30;60.80;;;;;;5041221;28;20495;-64
2024/01/05 11:21:37;;;;;;;48.55;43.63;;;12.30;97.20;;;;;;5040746;28;20901;-64
2024/01/05 11:24:04;;;;;;;49.90;44.43;;;12.50;99.90;;;;;;5032744;28;20044;-64
2024/01/05 11:26:35;;;;;;;47.83;42.97;;;12.30;99.90;;;;;;5035639;28;20102;-63
2024/01/05 11:29:04;;;;;;;45.78;40.90;;;12.90;99.90;;;;;;5036379;28;20048;-63
2024/01/05 11:31:47;;;;;;;45.58;40.67;;;12.40;99.90;;;;;;5033397;28;20033;-64
2024/01/05 11:34:36;;;;;;;44.47;39.97;;;13.00;99.90;;;;;;5032880;28;20045;-64
2024/01/05 11:37:02;;;;;;;46.58;41.90;;;13.10;99.90;;;;;;5039251;28;20410;-63
2024/01/05 11:39:48;;;;;;;46.78;41.90;;;12.90;99.90;;;;;;5034414;28;20048;-63
2024/01/05 11:42:27;;;;;;;57.63;52.13;;;12.90;99.90;;;;;;5039474;28;20062;-64
2024/01/05 11:45:11;;;;;;;50.13;41.92;;;12.40;99.90;;;;;;5041405;28;20049;-63
2024/01/05 11:47:44;;;;;;;51.17;42.17;;;13.00;99.90;;;;;;5039593;28;20037;-63
2024/01/05 11:50:30;;;;;;;49.20;42.35;;;13.10;99.90;;;;;;5042453;28;20123;-62
2024/01/05 11:53:13;;;;;;;46.55;40.78;;;12.40;99.90;;;;;;5038200;28;20483;-65
2024/01/05 11:55:50;;;;;;;49.92;41.83;;;13.10;99.90;;;;;;5038666;28;20125;-64
2024/01/05 11:58:31;;;;;;;59.35;53.75;;;12.90;99.90;;;;;;5038647;28;20045;-64
2024/01/05 12:00:58;;;;;;;45.80;41.15;;;12.70;99.90;;;;;;5033153;28;20085;-63
2024/01/05 12:03:25;;;;;;;48.28;43.35;;;13.20;99.90;;;;;;5039346;28;20123;-64
2024/01/05 12:05:54;;;;;;;46.63;41.65;;;13.50;99.90;;;;;;5037379;28;20694;-63
2024/01/05 12:08:24;;;;;;;47.55;42.78;;;13.10;99.90;;;;;;5040881;28;20080;-65
2024/01/05 12:10:54;;;;;;;44.20;39.70;;;13.10;1.00;;;;;;5038274;28;20036;-63
2024/01/05 12:13:24;;;;;;;45.65;40.78;;;12.50;1.00;;;;;;5032781;28;20033;-66
2024/01/05 12:15:57;;;;;;;49.75;43.22;;;13.00;1.00;;;;;;5035173;28;20138;-64
2024/01/05 12:18:32;;;;;;;48.35;43.30;;;13.20;1.00;;;;;;5040700;28;20044;-63
2024/01/05 12:21:02;;;;;;;63.78;57.55;;;13.10;1.00;;;;;;5034936;28;20068;-62
2024/01/05 12:23:30;;;;;;;52.42;45.63;;;12.60;1.00;;;;;;5041069;28;20053;-64
2024/01/05 12:26:09;;;;;;;48.17;43.00;;;13.20;1.00;;;;;;5035914;28;20079;-62
2024/01/05 12:28:39;;;;;;;57.30;51.78;;;13.20;1.00;;;;;;5033967;28;20455;-63
2024/01/05 12:31:10;;;;;;;58.05;52.53;;;12.80;1.00;;;;;;5038217;28;20052;-64